Weather observations for the past three days for
Keystone Heights Airport
Imperial (Metric)
Date Time (edt) Wind (mph) Vis. (mi.) Weather Sky Cond. Temperature (ºF) Relative Humidity Wind Chill (°F) Heat Index (°F) Pressure Precipitation (in)
Air Dwpt 6 hour altimeter (in) sea level (mb) 1 hr 3 hr 6 hr
Max. Min.
04 05:15 Calm 10.00 Mostly Cloudy FEW025 SCT030 BKN055 53.6 53.6 100% 30.04 0.0
04 04:55 Calm 10.00 Partly Cloudy SCT037 SCT055 53.6 53.6 100% 30.04 0.0
04 04:35 E 3 10.00 Mostly Cloudy SCT036 SCT045 BKN050 53.6 53.6 100% 30.04 0.0
04 04:15 E 3 10.00 Mostly Cloudy FEW037 BKN050 55.4 53.6 94% 30.04 0.0
04 03:55 Calm 10.00 Mostly Cloudy FEW036 FEW046 BKN055 55.4 55.4 100% 30.05 0.0
04 03:35 NE 5 10.00 Mostly Cloudy BKN050 57.2 55.4 94% 30.05 0.0
04 03:15 NE 6 10.00 Mostly Cloudy BKN050 59 55.4 88% 30.04 0.0
04 02:55 NE 7 10.00 Mostly Cloudy FEW034 SCT047 BKN050 60.8 55.4 83% 30.05 0.0
04 02:35 NE 6 10.00 Mostly Cloudy FEW034 FEW045 BKN055 59 55.4 88% 30.05 0.0
04 02:15 E 5 10.00 Mostly Cloudy FEW050 BKN060 57.2 53.6 88% 30.06 0.0
04 01:55 NE 6 10.00 Overcast OVC060 59 55.4 88% 30.07 0.0
04 01:35 NE 6 10.00 Mostly Cloudy BKN060 60.8 53.6 77% 30.08 0.0
04 01:15 NE 6 10.00 Mostly Cloudy BKN060 60.8 53.6 77% 30.08 0.0
04 00:55 NE 5 10.00 Mostly Cloudy BKN055 59 53.6 82% 30.08 0.0
04 00:35 NE 5 10.00 Mostly Cloudy BKN055 59 53.6 82% 30.08 0.0
04 00:15 NE 6 10.00 Mostly Cloudy BKN055 60.8 53.6 77% 30.08 0.0
03 23:55 NE 6 10.00 Mostly Cloudy FEW045 BKN055 60.8 53.6 77% 30.08 0.0
03 23:35 NE 6 10.00 Mostly Cloudy FEW044 BKN050 BKN090 60.8 53.6 77% 30.08 0.0
03 23:15 NE 6 10.00 Mostly Cloudy FEW044 BKN050 BKN055 62.6 51.8 68% 30.08 0.0
03 22:55 NE 7 10.00 Mostly Cloudy SCT045 BKN050 64.4 51.8 64% 30.08 0.0
03 22:35 NE 7 10.00 Mostly Cloudy SCT033 BKN044 BKN050 64.4 51.8 64% 30.08 0.0
03 22:15 E 7 10.00 Mostly Cloudy SCT032 BKN044 BKN050 64.4 53.6 68% 30.07 0.0
03 21:55 E 8 10.00 Mostly Cloudy SCT034 BKN042 BKN050 66.2 53.6 64% 30.06 0.0
03 21:35 NE 8 G 14 10.00 Mostly Cloudy FEW032 SCT041 BKN050 66.2 53.6 64% 30.05 0.0
03 21:15 E 8 G 15 10.00 Partly Cloudy FEW050 SCT055 68 53.6 60% 30.04 0.0
03 20:55 E 9 10.00 A Few Clouds FEW050 FEW060 68 53.6 60% 30.03 0.0
03 20:35 E 9 10.00 A Few Clouds FEW045 FEW055 68 51.8 56% 30.03 0.0
03 20:15 E 9 10.00 Fair CLR 69.8 51.8 53% 30.03 0.0
03 19:55 E 10 9.00 Fair CLR 69.8 51.8 53% 30.03 0.0
03 19:35 E 8 G 16 10.00 Fair CLR 71.6 51.8 50% 30.03 0.0
03 19:15 E 9 G 15 9.00 Fair CLR 73.4 51.8 47% 30.03 0.0
03 18:55 E 10 9.00 Fair CLR 73.4 51.8 47% 30.02 0.0
03 18:35 E 10 9.00 Fair CLR 75.2 51.8 44% 78 30.02 0.0
03 18:15 E 12 G 18 10.00 Fair CLR 75.2 51.8 44% 78 30.02 0.0
03 17:55 Calm 10.00 A Few Clouds FEW065 75.2 50 41% 78 30.02 0.0
03 17:35 E 10 9.00 A Few Clouds FEW060 FEW070 75.2 50 41% 78 30.02 0.0
03 17:15 E 13 10.00 A Few Clouds FEW060 75.2 50 41% 78 30.02 0.0
03 16:55 E 10 G 17 10.00 Partly Cloudy SCT060 77 50 39% 78 30.02 0.0
03 16:35 E 9 9.00 Partly Cloudy SCT060 75.2 50 41% 78 30.02 0.0
03 16:15 E 12 9.00 A Few Clouds FEW060 77 48.2 36% 78 30.03 0.0
03 15:55 E 9 9.00 Mostly Cloudy BKN060 77 48.2 36% 78 30.03 0.0
03 15:35 SE 6 G 13 10.00 A Few Clouds FEW060 77 50 39% 78 30.04 0.0
03 14:55 NW 7 G 14 9.00 A Few Clouds FEW060 77 48.2 36% 78 30.06 0.0
03 14:35 Vrbl 7 G 16 10.00 A Few Clouds FEW060 75.2 50 41% 78 30.07 0.0
03 14:15 Vrbl 3 G 14 10.00 Fair CLR 75.2 48.2 39% 77 30.07 0.0
03 13:55 NE 13 10.00 Fair CLR 75.2 50 41% 78 30.08 0.0
03 13:35 NE 12 9.00 A Few Clouds FEW050 75.2 51.8 44% 78 30.08 0.0
03 13:15 NE 8 G 15 9.00 Fair CLR 73.4 50 44% 30.09 0.0
03 12:55 Vrbl 6 G 14 9.00 Fair CLR 73.4 50 44% 30.1 0.0
03 12:35 E 12 G 18 9.00 Fair CLR 73.4 51.8 47% 30.11 0.0
03 12:15 NE 13 9.00 A Few Clouds FEW039 73.4 53.6 50% 30.11 0.0
03 11:55 N 10 9.00 Fair CLR 71.6 53.6 53% 30.11 0.0
03 11:35 NE 10 G 21 9.00 Fair CLR 69.8 53.6 57% 30.11 0.0
03 11:15 Vrbl 7 G 15 9.00 A Few Clouds FEW028 FEW033 69.8 55.4 60% 30.1 0.0
03 10:55 NE 10 9.00 A Few Clouds FEW028 FEW033 68 55.4 64% 30.1 0.0
03 10:35 NE 9 G 16 9.00 A Few Clouds FEW023 68 57.2 69% 30.11 0.0
03 10:15 NE 12 10.00 Partly Cloudy SCT022 68 57.2 69% 30.1 0.0
03 09:55 N 13 10.00 A Few Clouds FEW018 66.2 57.2 73% 30.09 0.0
03 09:35 N 10 9.00 A Few Clouds FEW017 64.4 57.2 78% 30.09 0.0
03 09:15 N 12 9.00 A Few Clouds FEW010 62.6 57.2 83% 30.09 0.0
03 08:55 N 6 9.00 Partly Cloudy SCT005 59 57.2 94% 30.08 0.0
03 08:35 N 6 9.00 Overcast OVC004 57.2 57.2 100% 30.08 0.0
03 08:15 N 6 8.00 Overcast OVC004 57.2 57.2 100% 30.08 0.0
03 07:55 N 6 8.00 Overcast OVC004 57.2 57.2 100% 30.07 0.0
03 07:35 N 6 1.25 Fog/Mist OVC003 55.4 55.4 100% 30.07 0.0
03 07:15 N 7 1.00 Fog/Mist OVC003 55.4 55.4 100% 30.06 0.0
03 06:55 N 3 5.00 Fog/Mist OVC003 55.4 55.4 100% 30.05 0.0
03 06:35 Calm 8.00 Overcast OVC003 55.4 55.4 100% 30.05 0.0
03 06:15 Vrbl 5 8.00 Overcast OVC003 55.4 55.4 100% 30.04 0.0
03 05:55 N 7 1.25 Fog/Mist OVC003 55.4 55.4 100% 30.03 0.0
03 05:35 N 7 0.50 Fog/Mist OVC003 55.4 55.4 100% 30.03 0.0
03 05:15 N 8 1.00 Fog/Mist OVC003 57.2 57.2 100% 30.02 0.0
03 04:55 N 6 1.25 Fog/Mist OVC003 57.2 57.2 100% 30.02 0.0
03 04:35 N 5 1.00 Fog/Mist OVC003 57.2 57.2 100% 30.02 0.0
03 04:15 N 6 0.75 Fog/Mist OVC003 57.2 57.2 100% 30.02 0.0
03 03:55 N 6 0.50 Fog OVC003 57.2 57.2 100% 30.02 0.0
03 03:35 N 6 1.75 Fog/Mist OVC002 57.2 57.2 100% 30.02 0.0
03 03:15 NW 5 0.75 Fog/Mist OVC002 55.4 55.4 100% 30.01 0.0
03 02:55 Calm 4.00 Fog/Mist FEW002 OVC039 55.4 55.4 100% 30.01 0.0
03 02:35 NW 3 8.00 Overcast OVC037 55.4 55.4 100% 30.01 0.0
03 02:15 Calm 0.75 Fog/Mist OVC037 55.4 55.4 100% 30.01 0.0
03 01:55 Calm 9.00 Overcast BKN036 OVC050 57.2 57.2 100% 30 0.0
03 01:35 Calm 9.00 Mostly Cloudy BKN037 BKN044 BKN050 57.2 57.2 100% 30.01 0.0
03 01:15 NW 3 10.00 Mostly Cloudy FEW008 BKN039 BKN045 57.2 57.2 100% 30 0.0
03 00:55 NW 3 10.00 Mostly Cloudy SCT008 BKN043 BKN049 57.2 57.2 100% 29.99 0.0
03 00:35 Calm 10.00 Mostly Cloudy BKN041 BKN049 59 59 100% 29.99 0.0
03 00:15 Calm 10.00 Partly Cloudy SCT039 59 59 100% 29.99 0.0
02 23:55 N 5 10.00 Partly Cloudy SCT010 60.8 59 94% 29.98 0.0
02 23:35 N 8 G 15 10.00 Overcast OVC010 60.8 59 94% 29.97 0.0
02 23:15 N 9 10.00 Mostly Cloudy BKN010 BKN024 60.8 59 94% 29.97 0.0
02 22:55 N 7 G 13 10.00 Mostly Cloudy BKN010 BKN024 60.8 59 94% 29.96 0.0
02 22:35 N 9 10.00 Mostly Cloudy BKN010 BKN017 60.8 59 94% 29.95 0.0
02 22:15 Vrbl 7 10.00 Mostly Cloudy BKN010 BKN015 62.6 59 88% 29.95 0.0
02 21:55 N 10 10.00 Overcast BKN010 OVC014 62.6 59 88% 29.94 0.0
02 21:35 N 7 G 14 10.00 Overcast OVC009 62.6 60.8 94% 29.93 0.0
02 21:15 N 9 10.00 Overcast BKN010 OVC038 62.6 60.8 94% 29.92 0.0
02 20:55 N 8 10.00 Overcast BKN011 OVC038 62.6 60.8 94% 29.92 0.0
02 20:35 N 8 G 15 10.00 Overcast OVC010 62.6 60.8 94% 29.91 0.0
02 20:15 NW 10 10.00 Overcast BKN010 OVC014 62.6 60.8 94% 29.91 0.0
02 19:55 N 12 G 18 9.00 Overcast OVC008 62.6 60.8 94% 29.89 0.0
02 19:35 N 13 10.00 Overcast OVC006 64.4 62.6 94% 29.88 0.0
02 19:15 N 14 9.00 Overcast OVC006 64.4 62.6 94% 29.86 0.0
02 18:55 NW 15 G 22 9.00 Overcast SCT009 BKN017 OVC024 68 64.4 88% 29.85 0.0
02 18:35 NW 6 9.00 Overcast BKN015 BKN021 OVC026 71.6 66.2 83% 29.84 0.0
02 18:15 NW 8 9.00 Overcast BKN013 BKN021 OVC090 71.6 66.2 83% 29.83 0.0
02 17:55 N 7 10.00 Mostly Cloudy FEW013 BKN090 71.6 66.2 83% 29.81 0.0
02 17:35 N 10 10.00 Fair CLR 71.6 66.2 83% 29.78 0.0
02 17:15 N 8 10.00 Mostly Cloudy SCT017 SCT025 BKN080 69.8 66.2 88% 29.79 0.0
02 16:55 NW 5 9.00 Overcast FEW007 OVC016 69.8 68 94% 29.8 0.0
02 16:35 NW 10 10.00 Overcast SCT007 OVC014 69.8 68 94% 29.81 0.0
02 16:15 NW 9 4.00 Fog/Mist BKN008 OVC012 69.8 68 94% 29.81 0.0
02 15:55 W 8 2.00 Fog/Mist OVC010 69.8 69.8 100% 29.82 0.0
02 15:35 SW 10 G 18 7.00 Overcast OVC011 71.6 68 88% 29.82 0.0
02 15:15 SW 13 G 22 8.00 Overcast OVC012 71.6 68 88% 29.82 0.0
02 14:55 SW 17 9.00 Overcast OVC013 71.6 68 88% 29.81 0.0
02 14:35 SW 16 G 24 9.00 Overcast BKN015 OVC022 71.6 68 88% 29.82 0.0
02 14:15 SW 23 G 29 9.00 Overcast and Breezy SCT014 BKN019 OVC023 71.6 68 88% 29.82 0.0
02 13:55 SW 8 8.00 Mostly Cloudy SCT013 BKN019 BKN026 69.8 69.8 100% 29.82 0.0
02 13:35 W 12 G 22 8.00 Mostly Cloudy FEW011 SCT018 BKN041 69.8 69.8 100% 29.82 0.0
02 13:15 W 13 5.00 Fog/Mist NULL 69.8 69.8 100% 29.83 0.0
02 12:55 Calm 2.00 Fog/Mist SCT012 BKN035 OVC075 69.8 69.8 100% 29.8 0.0
02 12:35 W 13 G 25 1.50 Fog/Mist SCT004 BKN031 OVC043 69.8 68 94% 29.82 0.0
02 12:15 NW 16 1.00 Fog/Mist NULL 71.6 71.6 100% 29.85 0.0
02 11:55 S 5 2.50 Fog/Mist SCT034 BKN043 BKN065 71.6 71.6 100% 29.82 0.0
02 11:35 S 5 4.00 Fog/Mist NULL 71.6 71.6 100% 29.82 0.0
02 11:15 SE 5 4.00 Fog/Mist FEW090 71.6 71.6 100% 29.82 0.0
02 10:55 SE 3 4.00 Fog/Mist FEW055 SCT090 69.8 69.8 100% 29.83 0.0
02 10:35 E 6 2.50 Fog/Mist NULL 69.8 69.8 100% 29.83 0.0
02 10:15 Calm 4.00 Fog/Mist SCT006 SCT035 BKN065 69.8 69.8 100% 29.84 0.0
02 09:55 Calm 4.00 Fog/Mist NULL 69.8 69.8 100% 29.84 0.0
02 09:35 E 8 5.00 Fog/Mist BKN007 BKN047 BKN060 69.8 69.8 100% 29.81 0.0
02 09:15 E 5 6.00 Fog/Mist BKN008 OVC047 69.8 68 94% 29.83 0.0
02 08:55 NE 3 6.00 Fog/Mist NULL 69.8 69.8 100% 29.83 0.0
02 08:35 E 5 5.00 Fog/Mist NULL 69.8 69.8 100% 29.82 0.0
02 08:15 E 5 5.00 Fog/Mist BKN011 OVC018 69.8 69.8 100% 29.81 0.0
02 07:55 NE 3 5.00 Fog/Mist OVC012 69.8 69.8 100% 29.81 0.0
02 07:35 Calm 4.00 Fog/Mist NULL 68 68 100% 29.8 0.0
02 07:15 NE 5 5.00 Fog/Mist BKN004 BKN015 BKN025 68 68 100% 29.81 0.0
02 06:55 S 5 6.00 Fog/Mist OVC003 68 68 100% 29.8 0.0
02 06:35 SE 6 6.00 Fog/Mist OVC003 68 68 100% 29.79 0.0
02 06:15 SE 6 6.00 Fog/Mist BKN004 BKN008 68 68 100% 29.79 0.0
02 05:55 SE 5 7.00 Mostly Cloudy BKN007 66.2 66.2 100% 29.79 0.0
02 05:35 E 5 8.00 Partly Cloudy FEW009 FEW026 SCT055 68 66.2 94% 29.79 0.0
02 05:15 SE 6 9.00 Fair CLR 68 66.2 94% 29.79 0.0
02 04:55 SE 6 9.00 Fair CLR 68 66.2 94% 29.79 0.0
02 04:35 E 5 9.00 A Few Clouds FEW047 FEW055 FEW120 66.2 66.2 100% 29.8 0.0
02 04:15 E 3 9.00 A Few Clouds FEW047 FEW055 FEW120 66.2 66.2 100% 29.82 0.0
02 03:55 Calm 8.00 A Few Clouds FEW055 66.2 66.2 100% 29.84 0.0
02 03:35 Calm 9.00 Mostly Cloudy BKN055 66.2 66.2 100% 29.85 0.0
02 03:15 Calm 9.00 A Few Clouds FEW055 68 66.2 94% 29.86 0.0
02 02:55 Calm 9.00 Fair CLR 68 66.2 94% 29.86 0.0
02 02:35 Calm 9.00 Fair CLR 69.8 66.2 88% 29.85 0.0
02 02:15 E 6 9.00 Partly Cloudy FEW046 FEW060 SCT065 68 68 100% 29.85 0.0
02 01:55 Calm 8.00 Mostly Cloudy FEW028 SCT038 BKN065 69.8 68 94% 29.86 0.0
02 01:35 NE 6 9.00 Mostly Cloudy FEW026 SCT030 BKN044 69.8 68 94% 29.86 0.0
02 01:15 E 9 9.00 Mostly Cloudy FEW032 FEW043 BKN065 69.8 68 94% 29.86 0.0
02 00:55 E 8 10.00 Partly Cloudy SCT042 SCT065 69.8 68 94% 29.87 0.0
02 00:35 E 8 10.00 Partly Cloudy SCT043 71.6 68 88% 29.87 0.0
02 00:15 NE 8 10.00 Overcast BKN039 OVC046 71.6 68 88% 29.87 0.0
01 23:55 NE 7 10.00 Overcast OVC039 73.4 68 83% 29.87 0.0
01 23:35 NE 8 10.00 Overcast OVC041 73.4 68 83% 29.87 0.0
01 23:15 E 8 10.00 Overcast BKN042 BKN050 OVC060 73.4 68 83% 29.86 0.0
01 22:55 E 9 10.00 Mostly Cloudy BKN048 BKN060 75.2 68 78% 76 29.86 0.0
01 22:35 E 9 10.00 Overcast FEW039 BKN048 OVC070 75.2 68 78% 76 29.87 0.0
01 22:15 E 8 10.00 Overcast BKN044 BKN055 OVC065 75.2 69.8 83% 75 29.87 0.0
01 21:55 E 7 10.00 Overcast OVC044 77 66.2 69% 79 29.87 0.0
01 21:35 Calm 10.00 Overcast OVC049 77 66.2 69% 79 29.86 0.0
01 21:15 Calm 10.00 Overcast OVC050 77 66.2 69% 79 29.85 0.0
01 20:55 N 3 10.00 Overcast BKN050 OVC055 78.8 66.2 65% 81 29.85 0.0
01 20:35 NW 7 G 13 10.00 Mostly Cloudy SCT050 BKN095 78.8 66.2 65% 81 29.84 0.0
01 20:15 NW 9 G 15 10.00 Overcast FEW055 SCT070 OVC100 78.8 66.2 65% 81 29.84 0.0
01 19:55 NW 7 9.00 Overcast BKN055 OVC070 78.8 66.2 65% 81 29.84 0.0
01 19:35 NW 7 9.00 Overcast BKN055 OVC085 78.8 68 70% 81 29.83 0.0
01 19:15 W 7 8.00 Overcast FEW060 BKN075 OVC110 78.8 69.8 74% 81 29.82 0.0
01 18:55 W 7 8.00 Overcast SCT060 OVC075 77 69.8 79% 79 29.81 0.0
01 18:35 NW 8 10.00 Overcast BKN060 OVC070 77 69.8 79% 79 29.81 0.0
01 18:15 W 3 7.00 Overcast FEW034 BKN060 OVC070 75.2 69.8 83% 75 29.81 0.0
01 17:55 W 14 G 22 3.00 Overcast with Haze FEW036 BKN055 OVC110 78.8 68 70% 81 29.81 0.0
01 17:35 NW 8 9.00 Mostly Cloudy SCT065 BKN095 BKN120 86 62.6 46% 87 29.8 0.0
01 17:15 W 9 10.00 Mostly Cloudy BKN060 BKN080 87.8 62.6 43% 88 29.8 0.0
01 16:55 Calm 9.00 Partly Cloudy FEW065 SCT080 87.8 62.6 43% 88 29.79 0.0
01 16:35 Calm 10.00 A Few Clouds FEW065 87.8 62.6 43% 88 29.79 0.0
01 16:15 N 6 G 12 9.00 Partly Cloudy FEW065 SCT075 87.8 62.6 43% 88 29.79 0.0
01 15:55 Calm 9.00 Mostly Cloudy BKN060 BKN075 87.8 60.8 40% 88 29.81 0.0
01 15:35 Vrbl 6 9.00 Mostly Cloudy BKN060 BKN075 BKN085 87.8 60.8 40% 88 29.82 0.0
01 15:15 Vrbl 5 G 15 9.00 Partly Cloudy FEW055 SCT070 87.8 62.6 43% 88 29.83 0.0
01 14:55 Vrbl 5 G 18 8.00 Partly Cloudy SCT055 87.8 60.8 40% 88 29.83 0.0
01 14:35 W 8 9.00 Partly Cloudy SCT055 87.8 62.6 43% 88 29.84 0.0
01 13:55 Vrbl 5 G 14 9.00 Partly Cloudy SCT055 SCT065 86 62.6 46% 87 29.86 0.0
01 13:35 W 7 G 14 10.00 Fair CLR 84.2 62.6 48% 85 29.87 0.0
01 13:15 W 7 G 14 9.00 Fair CLR 86 62.6 46% 87 29.87 0.0
01 12:55 W 12 G 17 9.00 Fair CLR 84.2 62.6 48% 85 29.89 0.0
01 12:35 W 12 9.00 Fair CLR 84.2 62.6 48% 85 29.89 0.0
01 12:15 Vrbl 6 9.00 Fair CLR 82.4 62.6 51% 83 29.9 0.0
01 11:55 Vrbl 7 G 14 9.00 Fair CLR 82.4 62.6 51% 83 29.91 0.0
01 11:35 NW 7 9.00 Fair CLR 82.4 62.6 51% 83 29.91 0.0
01 11:15 Vrbl 5 9.00 Fair CLR 80.6 62.6 54% 82 29.92 0.0
01 10:55 Calm 9.00 Fair CLR 78.8 62.6 58% 80 29.91 0.0
01 10:35 Calm 9.00 Fair CLR 75.2 62.6 65% 77 29.91 0.0
01 10:15 Calm 9.00 Fair CLR 75.2 62.6 65% 77 29.91 0.0
01 09:55 N 5 9.00 NULL NULL 75.2 62.6 65% 77 29.91 0.0
01 09:35 Calm 9.00 NULL NULL 73.4 64.4 74% 29.9 0.0
01 09:15 Calm 9.00 Fair CLR 71.6 64.4 78% 29.9 0.0
01 08:55 Calm 9.00 Fair CLR 71.6 66.2 83% 29.89 0.0
01 08:35 NW 5 9.00 NULL NULL 69.8 66.2 88% 29.9 0.0
01 08:15 Calm 0.00 NULL NULL 0 0 0% 29.89 0.0
01 07:55 Calm 7.00 NULL NULL 68 66.2 94% 29.88 0.0
01 07:15 Calm 9.00 Fair CLR 68 66.2 94% 29.87 0.0
01 06:55 Calm 10.00 Fair CLR 68 66.2 94% 29.86 0.0
01 06:35 N 3 9.00 Fair CLR 68 66.2 94% 29.86 0.0
01 06:15 N 5 8.00 Fair CLR 68 68 100% 29.85 0.0
01 05:55 Calm 8.00 Fair CLR 68 68 100% 29.85 0.0
01 05:35 Calm 7.00 Fair CLR 68 68 100% 29.84 0.0
Date Time (edt) Wind (mph) Vis. (mi.) Weather Sky Cond. Air Dwpt Max. Min. Relative Humidity Wind Chill (°F) Heat Index (°F) altimeter (in) sea level (mb) 1 hr 3 hr 6 hr
6 hour
Temperature (ºF) Pressure Precipitation (in)